Duce, Arkansas
Current Conditions -  °F | °C
As of 1:02 PM on Sunday 23 Nov 2014 (Local Time) from KGLH Reporting Station
Haze Haze  
Wind Chill: 64°   Ceiling: 900
Heat Index: 64°   Visibility: 4mi
Dew Point: 61°   Wind: 20mph
Humidity: 90%   Direction: 230°SW
Pressure: 29.31"   Gusts: 29mph
Location:  33.7652°N, 91.2745°W
Report Text: KGLH 231902Z AUTO 23017G25KT 4SM BR BKN009 OVC014 18/16 A2931 RMK AO2 CIG 006V011 T01780161 $
Loading
Personal Weather Stations






























Interactive Weather Map New forecast layout! Learn more

10-Day Weather Forecast

Advertisements
Track Severe Weather on mobile